sensor_id;sensor_type;location;lat;lon;timestamp;P1;durP1;ratioP1;P2;durP2;ratioP2
23617;SDS011;18207;32.078;34.818;2024-01-11T00:00:58;1.50;;;0.95;;
23617;SDS011;18207;32.078;34.818;2024-01-11T00:03:27;0.82;;;0.80;;
23617;SDS011;18207;32.078;34.818;2024-01-11T00:05:57;1.52;;;0.80;;
23617;SDS011;18207;32.078;34.818;2024-01-11T00:08:40;0.73;;;0.70;;
23617;SDS011;18207;32.078;34.818;2024-01-11T00:11:12;1.63;;;0.80;;
23617;SDS011;18207;32.078;34.818;2024-01-11T00:13:44;1.30;;;0.80;;
23617;SDS011;18207;32.078;34.818;2024-01-11T00:16:13;2.70;;;0.98;;
23617;SDS011;18207;32.078;34.818;2024-01-11T00:18:43;1.17;;;0.60;;
23617;SDS011;18207;32.078;34.818;2024-01-11T00:21:13;1.90;;;1.02;;
23617;SDS011;18207;32.078;34.818;2024-01-11T00:23:43;1.25;;;0.90;;
23617;SDS011;18207;32.078;34.818;2024-01-11T00:26:14;1.75;;;0.90;;
23617;SDS011;18207;32.078;34.818;2024-01-11T00:28:44;2.15;;;1.08;;
23617;SDS011;18207;32.078;34.818;2024-01-11T00:31:14;1.05;;;0.90;;
23617;SDS011;18207;32.078;34.818;2024-01-11T00:33:44;1.83;;;0.85;;
23617;SDS011;18207;32.078;34.818;2024-01-11T00:36:17;1.23;;;1.00;;
23617;SDS011;18207;32.078;34.818;2024-01-11T00:38:47;1.40;;;0.85;;
23617;SDS011;18207;32.078;34.818;2024-01-11T00:41:19;1.15;;;1.02;;
23617;SDS011;18207;32.078;34.818;2024-01-11T00:43:49;1.08;;;1.00;;
23617;SDS011;18207;32.078;34.818;2024-01-11T00:46:19;0.90;;;0.80;;
23617;SDS011;18207;32.078;34.818;2024-01-11T00:48:49;1.88;;;1.10;;
23617;SDS011;18207;32.078;34.818;2024-01-11T00:51:22;1.38;;;1.00;;
23617;SDS011;18207;32.078;34.818;2024-01-11T00:53:52;1.02;;;0.93;;
23617;SDS011;18207;32.078;34.818;2024-01-11T00:56:23;0.93;;;0.70;;
23617;SDS011;18207;32.078;34.818;2024-01-11T00:58:53;1.92;;;1.17;;
23617;SDS011;18207;32.078;34.818;2024-01-11T01:01:23;1.40;;;1.10;;
23617;SDS011;18207;32.078;34.818;2024-01-11T01:03:53;1.48;;;1.00;;
23617;SDS011;18207;32.078;34.818;2024-01-11T01:06:23;1.08;;;0.73;;
23617;SDS011;18207;32.078;34.818;2024-01-11T01:08:54;0.98;;;0.82;;
23617;SDS011;18207;32.078;34.818;2024-01-11T01:11:26;1.45;;;0.93;;
23617;SDS011;18207;32.078;34.818;2024-01-11T01:13:56;1.00;;;0.90;;
23617;SDS011;18207;32.078;34.818;2024-01-11T01:19:10;1.60;;;1.15;;
23617;SDS011;18207;32.078;34.818;2024-01-11T01:21:43;0.95;;;0.80;;
23617;SDS011;18207;32.078;34.818;2024-01-11T01:24:13;1.52;;;1.00;;
23617;SDS011;18207;32.078;34.818;2024-01-11T01:26:45;1.13;;;0.88;;
23617;SDS011;18207;32.078;34.818;2024-01-11T01:29:15;0.82;;;0.70;;
23617;SDS011;18207;32.078;34.818;2024-01-11T01:31:45;1.10;;;1.00;;
23617;SDS011;18207;32.078;34.818;2024-01-11T01:34:14;1.48;;;0.70;;
23617;SDS011;18207;32.078;34.818;2024-01-11T01:36:44;0.77;;;0.52;;
23617;SDS011;18207;32.078;34.818;2024-01-11T01:39:14;0.75;;;0.70;;
23617;SDS011;18207;32.078;34.818;2024-01-11T01:41:45;1.23;;;0.80;;
23617;SDS011;18207;32.078;34.818;2024-01-11T01:44:15;1.10;;;0.80;;
23617;SDS011;18207;32.078;34.818;2024-01-11T01:46:45;1.33;;;1.00;;
23617;SDS011;18207;32.078;34.818;2024-01-11T01:49:20;0.60;;;0.50;;
23617;SDS011;18207;32.078;34.818;2024-01-11T01:51:53;1.38;;;0.70;;
23617;SDS011;18207;32.078;34.818;2024-01-11T01:54:26;0.80;;;0.70;;
23617;SDS011;18207;32.078;34.818;2024-01-11T01:57:00;1.42;;;0.80;;
23617;SDS011;18207;32.078;34.818;2024-01-11T01:59:35;1.58;;;0.73;;
23617;SDS011;18207;32.078;34.818;2024-01-11T02:02:08;1.20;;;0.60;;
23617;SDS011;18207;32.078;34.818;2024-01-11T02:04:40;0.68;;;0.65;;
23617;SDS011;18207;32.078;34.818;2024-01-11T02:07:10;0.90;;;0.60;;
23617;SDS011;18207;32.078;34.818;2024-01-11T02:09:41;1.00;;;0.38;;
23617;SDS011;18207;32.078;34.818;2024-01-11T02:12:14;0.40;;;0.40;;
23617;SDS011;18207;32.078;34.818;2024-01-11T02:14:45;0.55;;;0.55;;
23617;SDS011;18207;32.078;34.818;2024-01-11T02:17:15;0.75;;;0.55;;
23617;SDS011;18207;32.078;34.818;2024-01-11T02:19:48;0.80;;;0.50;;
23617;SDS011;18207;32.078;34.818;2024-01-11T02:22:22;1.55;;;0.68;;
23617;SDS011;18207;32.078;34.818;2024-01-11T02:25:07;1.13;;;0.47;;
23617;SDS011;18207;32.078;34.818;2024-01-11T02:27:45;0.57;;;0.57;;
23617;SDS011;18207;32.078;34.818;2024-01-11T02:30:19;0.80;;;0.30;;
23617;SDS011;18207;32.078;34.818;2024-01-11T02:32:53;0.60;;;0.40;;
23617;SDS011;18207;32.078;34.818;2024-01-11T02:35:27;1.27;;;0.43;;
23617;SDS011;18207;32.078;34.818;2024-01-11T02:37:58;0.55;;;0.30;;
23617;SDS011;18207;32.078;34.818;2024-01-11T02:40:31;0.50;;;0.40;;
23617;SDS011;18207;32.078;34.818;2024-01-11T02:43:07;0.63;;;0.40;;
23617;SDS011;18207;32.078;34.818;2024-01-11T02:45:38;0.50;;;0.40;;
23617;SDS011;18207;32.078;34.818;2024-01-11T02:48:08;0.70;;;0.30;;
23617;SDS011;18207;32.078;34.818;2024-01-11T02:50:39;0.70;;;0.50;;
23617;SDS011;18207;32.078;34.818;2024-01-11T02:53:09;0.57;;;0.43;;
23617;SDS011;18207;32.078;34.818;2024-01-11T02:55:40;1.08;;;0.60;;
23617;SDS011;18207;32.078;34.818;2024-01-11T02:58:10;0.43;;;0.35;;
23617;SDS011;18207;32.078;34.818;2024-01-11T03:00:40;1.75;;;0.68;;
23617;SDS011;18207;32.078;34.818;2024-01-11T03:03:10;1.17;;;0.50;;
23617;SDS011;18207;32.078;34.818;2024-01-11T03:05:41;0.32;;;0.32;;
23617;SDS011;18207;32.078;34.818;2024-01-11T03:08:11;0.90;;;0.60;;
23617;SDS011;18207;32.078;34.818;2024-01-11T03:10:42;0.77;;;0.45;;
23617;SDS011;18207;32.078;34.818;2024-01-11T03:13:15;0.90;;;0.60;;
23617;SDS011;18207;32.078;34.818;2024-01-11T03:15:45;1.75;;;0.60;;
23617;SDS011;18207;32.078;34.818;2024-01-11T03:18:15;0.70;;;0.47;;
23617;SDS011;18207;32.078;34.818;2024-01-11T03:20:45;1.10;;;0.70;;
23617;SDS011;18207;32.078;34.818;2024-01-11T03:23:15;0.82;;;0.57;;
23617;SDS011;18207;32.078;34.818;2024-01-11T03:25:46;0.68;;;0.47;;
23617;SDS011;18207;32.078;34.818;2024-01-11T03:28:16;0.70;;;0.68;;
23617;SDS011;18207;32.078;34.818;2024-01-11T03:30:46;1.17;;;0.63;;
23617;SDS011;18207;32.078;34.818;2024-01-11T03:33:15;1.45;;;0.60;;
23617;SDS011;18207;32.078;34.818;2024-01-11T03:35:46;0.60;;;0.60;;
23617;SDS011;18207;32.078;34.818;2024-01-11T03:38:16;1.33;;;0.68;;
23617;SDS011;18207;32.078;34.818;2024-01-11T03:40:47;0.73;;;0.60;;
23617;SDS011;18207;32.078;34.818;2024-01-11T03:43:17;0.80;;;0.30;;
23617;SDS011;18207;32.078;34.818;2024-01-11T03:45:47;0.43;;;0.32;;
23617;SDS011;18207;32.078;34.818;2024-01-11T03:48:16;0.60;;;0.43;;
23617;SDS011;18207;32.078;34.818;2024-01-11T03:50:47;0.60;;;0.43;;
23617;SDS011;18207;32.078;34.818;2024-01-11T03:53:17;0.88;;;0.40;;
23617;SDS011;18207;32.078;34.818;2024-01-11T03:55:48;0.73;;;0.50;;
23617;SDS011;18207;32.078;34.818;2024-01-11T03:58:18;0.47;;;0.45;;
23617;SDS011;18207;32.078;34.818;2024-01-11T04:00:48;0.55;;;0.40;;
23617;SDS011;18207;32.078;34.818;2024-01-11T04:03:20;0.60;;;0.35;;
23617;SDS011;18207;32.078;34.818;2024-01-11T04:05:50;1.02;;;0.70;;
23617;SDS011;18207;32.078;34.818;2024-01-11T04:08:20;0.57;;;0.30;;
23617;SDS011;18207;32.078;34.818;2024-01-11T04:10:52;0.47;;;0.47;;
23617;SDS011;18207;32.078;34.818;2024-01-11T04:13:21;1.42;;;0.68;;
23617;SDS011;18207;32.078;34.818;2024-01-11T04:15:52;0.80;;;0.47;;
23617;SDS011;18207;32.078;34.818;2024-01-11T04:18:22;0.77;;;0.52;;
23617;SDS011;18207;32.078;34.818;2024-01-11T04:20:52;0.90;;;0.50;;
23617;SDS011;18207;32.078;34.818;2024-01-11T04:23:21;0.80;;;0.57;;
23617;SDS011;18207;32.078;34.818;2024-01-11T04:25:53;0.60;;;0.60;;
23617;SDS011;18207;32.078;34.818;2024-01-11T04:28:23;1.52;;;0.80;;
23617;SDS011;18207;32.078;34.818;2024-01-11T04:30:52;1.52;;;0.82;;
23617;SDS011;18207;32.078;34.818;2024-01-11T04:33:23;1.05;;;0.60;;
23617;SDS011;18207;32.078;34.818;2024-01-11T04:35:53;0.75;;;0.65;;
23617;SDS011;18207;32.078;34.818;2024-01-11T04:38:22;0.55;;;0.30;;
23617;SDS011;18207;32.078;34.818;2024-01-11T04:40:54;0.85;;;0.60;;
23617;SDS011;18207;32.078;34.818;2024-01-11T04:43:24;1.65;;;0.70;;
23617;SDS011;18207;32.078;34.818;2024-01-11T04:45:54;0.60;;;0.60;;
23617;SDS011;18207;32.078;34.818;2024-01-11T04:48:26;0.98;;;0.60;;
23617;SDS011;18207;32.078;34.818;2024-01-11T04:50:56;1.00;;;0.80;;
23617;SDS011;18207;32.078;34.818;2024-01-11T04:53:25;0.45;;;0.45;;
23617;SDS011;18207;32.078;34.818;2024-01-11T04:55:57;0.90;;;0.70;;
23617;SDS011;18207;32.078;34.818;2024-01-11T04:58:28;1.17;;;1.00;;
23617;SDS011;18207;32.078;34.818;2024-01-11T05:00:59;0.95;;;0.70;;
23617;SDS011;18207;32.078;34.818;2024-01-11T05:03:31;1.65;;;0.80;;
23617;SDS011;18207;32.078;34.818;2024-01-11T05:06:05;1.10;;;0.75;;
23617;SDS011;18207;32.078;34.818;2024-01-11T05:08:37;1.42;;;1.00;;
23617;SDS011;18207;32.078;34.818;2024-01-11T05:11:16;1.60;;;0.77;;
23617;SDS011;18207;32.078;34.818;2024-01-11T05:13:53;1.25;;;0.90;;
23617;SDS011;18207;32.078;34.818;2024-01-11T05:16:25;1.23;;;0.90;;
23617;SDS011;18207;32.078;34.818;2024-01-11T05:18:58;0.93;;;0.77;;
23617;SDS011;18207;32.078;34.818;2024-01-11T05:21:29;1.13;;;0.80;;
23617;SDS011;18207;32.078;34.818;2024-01-11T05:24:01;0.93;;;0.80;;
23617;SDS011;18207;32.078;34.818;2024-01-11T05:26:39;1.05;;;0.95;;
23617;SDS011;18207;32.078;34.818;2024-01-11T05:29:09;0.63;;;0.60;;
23617;SDS011;18207;32.078;34.818;2024-01-11T05:31:39;1.45;;;1.00;;
23617;SDS011;18207;32.078;34.818;2024-01-11T05:34:15;1.45;;;1.00;;
23617;SDS011;18207;32.078;34.818;2024-01-11T05:36:49;1.23;;;1.00;;
23617;SDS011;18207;32.078;34.818;2024-01-11T05:39:21;0.95;;;0.85;;
23617;SDS011;18207;32.078;34.818;2024-01-11T05:41:56;0.95;;;0.75;;
23617;SDS011;18207;32.078;34.818;2024-01-11T05:44:29;1.40;;;1.05;;
23617;SDS011;18207;32.078;34.818;2024-01-11T05:47:03;1.85;;;0.70;;
23617;SDS011;18207;32.078;34.818;2024-01-11T05:49:37;1.05;;;0.90;;
23617;SDS011;18207;32.078;34.818;2024-01-11T05:52:10;1.73;;;1.08;;
23617;SDS011;18207;32.078;34.818;2024-01-11T05:54:40;1.02;;;0.88;;
23617;SDS011;18207;32.078;34.818;2024-01-11T05:57:12;3.25;;;0.98;;
23617;SDS011;18207;32.078;34.818;2024-01-11T05:59:43;1.25;;;0.70;;
23617;SDS011;18207;32.078;34.818;2024-01-11T06:02:14;1.27;;;0.80;;
23617;SDS011;18207;32.078;34.818;2024-01-11T06:04:44;1.27;;;0.85;;
23617;SDS011;18207;32.078;34.818;2024-01-11T06:07:15;0.85;;;0.70;;
23617;SDS011;18207;32.078;34.818;2024-01-11T06:09:44;1.00;;;0.90;;
23617;SDS011;18207;32.078;34.818;2024-01-11T06:12:16;1.58;;;0.80;;
23617;SDS011;18207;32.078;34.818;2024-01-11T06:14:46;1.40;;;1.02;;
23617;SDS011;18207;32.078;34.818;2024-01-11T06:17:15;0.93;;;0.80;;
23617;SDS011;18207;32.078;34.818;2024-01-11T06:19:45;1.23;;;0.88;;
23617;SDS011;18207;32.078;34.818;2024-01-11T06:22:15;2.60;;;1.30;;
23617;SDS011;18207;32.078;34.818;2024-01-11T06:24:45;0.82;;;0.82;;
23617;SDS011;18207;32.078;34.818;2024-01-11T06:27:17;0.70;;;0.70;;
23617;SDS011;18207;32.078;34.818;2024-01-11T06:29:50;1.60;;;0.98;;
23617;SDS011;18207;32.078;34.818;2024-01-11T06:32:20;1.08;;;0.80;;
23617;SDS011;18207;32.078;34.818;2024-01-11T06:34:50;1.10;;;1.00;;
23617;SDS011;18207;32.078;34.818;2024-01-11T06:37:19;1.52;;;0.88;;
23617;SDS011;18207;32.078;34.818;2024-01-11T06:39:50;0.70;;;0.70;;
23617;SDS011;18207;32.078;34.818;2024-01-11T06:42:24;0.98;;;0.80;;
23617;SDS011;18207;32.078;34.818;2024-01-11T06:44:54;0.70;;;0.70;;
23617;SDS011;18207;32.078;34.818;2024-01-11T06:47:24;1.25;;;0.88;;
23617;SDS011;18207;32.078;34.818;2024-01-11T06:49:55;1.25;;;1.00;;
23617;SDS011;18207;32.078;34.818;2024-01-11T06:52:25;1.38;;;0.88;;
23617;SDS011;18207;32.078;34.818;2024-01-11T06:54:54;0.85;;;0.70;;
23617;SDS011;18207;32.078;34.818;2024-01-11T06:57:26;0.88;;;0.80;;
23617;SDS011;18207;32.078;34.818;2024-01-11T06:59:55;1.50;;;0.98;;
23617;SDS011;18207;32.078;34.818;2024-01-11T07:02:26;1.02;;;0.90;;
23617;SDS011;18207;32.078;34.818;2024-01-11T07:04:57;0.93;;;0.80;;
23617;SDS011;18207;32.078;34.818;2024-01-11T07:07:27;1.33;;;1.02;;
23617;SDS011;18207;32.078;34.818;2024-01-11T07:09:57;0.90;;;0.80;;
23617;SDS011;18207;32.078;34.818;2024-01-11T07:12:31;1.45;;;1.10;;
23617;SDS011;18207;32.078;34.818;2024-01-11T07:15:04;1.05;;;0.90;;
23617;SDS011;18207;32.078;34.818;2024-01-11T07:17:35;1.10;;;0.80;;
23617;SDS011;18207;32.078;34.818;2024-01-11T07:20:06;1.20;;;0.95;;
23617;SDS011;18207;32.078;34.818;2024-01-11T07:22:38;1.13;;;0.98;;
23617;SDS011;18207;32.078;34.818;2024-01-11T07:25:08;1.05;;;0.90;;
23617;SDS011;18207;32.078;34.818;2024-01-11T07:27:40;0.80;;;0.80;;
23617;SDS011;18207;32.078;34.818;2024-01-11T07:30:10;2.30;;;1.13;;
23617;SDS011;18207;32.078;34.818;2024-01-11T07:32:41;1.08;;;0.93;;
23617;SDS011;18207;32.078;34.818;2024-01-11T07:35:11;2.45;;;1.13;;
23617;SDS011;18207;32.078;34.818;2024-01-11T07:37:45;1.20;;;1.02;;
23617;SDS011;18207;32.078;34.818;2024-01-11T07:40:15;1.83;;;1.30;;
23617;SDS011;18207;32.078;34.818;2024-01-11T07:42:50;1.50;;;1.17;;
23617;SDS011;18207;32.078;34.818;2024-01-11T07:45:20;2.10;;;1.23;;
23617;SDS011;18207;32.078;34.818;2024-01-11T07:47:50;1.30;;;1.20;;
23617;SDS011;18207;32.078;34.818;2024-01-11T07:50:20;1.48;;;1.13;;
23617;SDS011;18207;32.078;34.818;2024-01-11T07:52:50;1.52;;;1.15;;
23617;SDS011;18207;32.078;34.818;2024-01-11T07:55:22;1.75;;;1.20;;
23617;SDS011;18207;32.078;34.818;2024-01-11T07:57:54;1.67;;;0.88;;
23617;SDS011;18207;32.078;34.818;2024-01-11T08:00:24;1.67;;;0.98;;
23617;SDS011;18207;32.078;34.818;2024-01-11T08:02:55;1.15;;;1.10;;
23617;SDS011;18207;32.078;34.818;2024-01-11T08:05:25;1.90;;;1.30;;
23617;SDS011;18207;32.078;34.818;2024-01-11T08:07:56;1.05;;;0.95;;
23617;SDS011;18207;32.078;34.818;2024-01-11T08:10:28;0.70;;;0.60;;
23617;SDS011;18207;32.078;34.818;2024-01-11T08:13:00;0.70;;;0.70;;
23617;SDS011;18207;32.078;34.818;2024-01-11T08:15:30;0.68;;;0.60;;
23617;SDS011;18207;32.078;34.818;2024-01-11T08:18:01;1.27;;;0.98;;
23617;SDS011;18207;32.078;34.818;2024-01-11T08:20:32;0.90;;;0.80;;
23617;SDS011;18207;32.078;34.818;2024-01-11T08:23:02;0.85;;;0.82;;
23617;SDS011;18207;32.078;34.818;2024-01-11T08:25:33;0.80;;;0.65;;
23617;SDS011;18207;32.078;34.818;2024-01-11T08:28:07;1.63;;;1.00;;
23617;SDS011;18207;32.078;34.818;2024-01-11T08:30:42;0.98;;;0.80;;
23617;SDS011;18207;32.078;34.818;2024-01-11T08:33:14;0.90;;;0.88;;
23617;SDS011;18207;32.078;34.818;2024-01-11T08:35:44;0.90;;;0.80;;
23617;SDS011;18207;32.078;34.818;2024-01-11T08:38:15;1.17;;;0.95;;
23617;SDS011;18207;32.078;34.818;2024-01-11T08:40:45;0.70;;;0.50;;
23617;SDS011;18207;32.078;34.818;2024-01-11T08:43:17;0.65;;;0.65;;
23617;SDS011;18207;32.078;34.818;2024-01-11T08:45:47;1.33;;;0.77;;
23617;SDS011;18207;32.078;34.818;2024-01-11T08:48:16;1.08;;;0.70;;
23617;SDS011;18207;32.078;34.818;2024-01-11T08:50:46;1.02;;;0.82;;
23617;SDS011;18207;32.078;34.818;2024-01-11T08:53:16;1.35;;;1.00;;
23617;SDS011;18207;32.078;34.818;2024-01-11T08:55:47;1.40;;;1.13;;
23617;SDS011;18207;32.078;34.818;2024-01-11T08:58:18;1.35;;;1.20;;
23617;SDS011;18207;32.078;34.818;2024-01-11T09:00:50;1.65;;;1.17;;
23617;SDS011;18207;32.078;34.818;2024-01-11T09:03:20;1.75;;;1.20;;
23617;SDS011;18207;32.078;34.818;2024-01-11T09:05:51;2.08;;;1.30;;
23617;SDS011;18207;32.078;34.818;2024-01-11T09:08:24;1.27;;;1.10;;
23617;SDS011;18207;32.078;34.818;2024-01-11T09:10:54;1.15;;;1.05;;
23617;SDS011;18207;32.078;34.818;2024-01-11T09:13:27;1.23;;;1.05;;
23617;SDS011;18207;32.078;34.818;2024-01-11T09:16:04;1.60;;;1.10;;
23617;SDS011;18207;32.078;34.818;2024-01-11T09:18:39;2.60;;;1.50;;
23617;SDS011;18207;32.078;34.818;2024-01-11T09:21:11;1.40;;;1.13;;
23617;SDS011;18207;32.078;34.818;2024-01-11T09:23:41;1.48;;;1.27;;
23617;SDS011;18207;32.078;34.818;2024-01-11T09:26:11;1.35;;;1.20;;
23617;SDS011;18207;32.078;34.818;2024-01-11T09:28:43;1.20;;;0.93;;
23617;SDS011;18207;32.078;34.818;2024-01-11T09:31:23;1.10;;;1.00;;
23617;SDS011;18207;32.078;34.818;2024-01-11T09:33:53;1.20;;;1.10;;
23617;SDS011;18207;32.078;34.818;2024-01-11T09:36:24;1.67;;;1.10;;
23617;SDS011;18207;32.078;34.818;2024-01-11T09:38:54;1.65;;;0.98;;
23617;SDS011;18207;32.078;34.818;2024-01-11T09:41:27;1.35;;;1.10;;
23617;SDS011;18207;32.078;34.818;2024-01-11T09:44:04;1.63;;;1.40;;
23617;SDS011;18207;32.078;34.818;2024-01-11T09:46:34;1.92;;;0.90;;
23617;SDS011;18207;32.078;34.818;2024-01-11T09:49:04;2.08;;;1.13;;
23617;SDS011;18207;32.078;34.818;2024-01-11T09:51:36;0.98;;;0.98;;
23617;SDS011;18207;32.078;34.818;2024-01-11T09:54:08;1.25;;;0.98;;
23617;SDS011;18207;32.078;34.818;2024-01-11T09:56:39;1.20;;;0.90;;
23617;SDS011;18207;32.078;34.818;2024-01-11T09:59:11;0.80;;;0.70;;
23617;SDS011;18207;32.078;34.818;2024-01-11T10:01:41;0.93;;;0.90;;
23617;SDS011;18207;32.078;34.818;2024-01-11T10:04:15;0.85;;;0.60;;
23617;SDS011;18207;32.078;34.818;2024-01-11T10:06:46;0.65;;;0.65;;
23617;SDS011;18207;32.078;34.818;2024-01-11T10:09:19;1.17;;;1.08;;
23617;SDS011;18207;32.078;34.818;2024-01-11T10:11:49;1.63;;;0.95;;
23617;SDS011;18207;32.078;34.818;2024-01-11T10:14:25;0.95;;;0.90;;
23617;SDS011;18207;32.078;34.818;2024-01-11T10:16:56;0.93;;;0.80;;
23617;SDS011;18207;32.078;34.818;2024-01-11T10:19:26;1.25;;;0.68;;
23617;SDS011;18207;32.078;34.818;2024-01-11T10:21:56;1.00;;;0.90;;
23617;SDS011;18207;32.078;34.818;2024-01-11T10:24:27;1.02;;;0.90;;
23617;SDS011;18207;32.078;34.818;2024-01-11T10:26:57;0.80;;;0.68;;
23617;SDS011;18207;32.078;34.818;2024-01-11T10:29:32;0.70;;;0.70;;
23617;SDS011;18207;32.078;34.818;2024-01-11T10:32:04;0.90;;;0.60;;
23617;SDS011;18207;32.078;34.818;2024-01-11T10:34:34;1.15;;;0.40;;
23617;SDS011;18207;32.078;34.818;2024-01-11T10:37:07;0.85;;;0.38;;
23617;SDS011;18207;32.078;34.818;2024-01-11T10:39:37;0.40;;;0.30;;
23617;SDS011;18207;32.078;34.818;2024-01-11T10:42:11;0.20;;;0.20;;
23617;SDS011;18207;32.078;34.818;2024-01-11T10:44:50;0.30;;;0.20;;
23617;SDS011;18207;32.078;34.818;2024-01-11T10:47:25;0.38;;;0.30;;
23617;SDS011;18207;32.078;34.818;2024-01-11T10:50:00;0.10;;;0.10;;
23617;SDS011;18207;32.078;34.818;2024-01-11T10:52:40;0.15;;;0.13;;
23617;SDS011;18207;32.078;34.818;2024-01-11T10:55:22;1.27;;;0.30;;
23617;SDS011;18207;32.078;34.818;2024-01-11T10:57:54;0.30;;;0.30;;
23617;SDS011;18207;32.078;34.818;2024-01-11T11:00:28;0.10;;;0.10;;
23617;SDS011;18207;32.078;34.818;2024-01-11T11:03:02;0.80;;;0.40;;
23617;SDS011;18207;32.078;34.818;2024-01-11T11:05:38;0.30;;;0.30;;
23617;SDS011;18207;32.078;34.818;2024-01-11T11:08:11;0.22;;;0.10;;
23617;SDS011;18207;32.078;34.818;2024-01-11T11:10:43;0.35;;;0.10;;
23617;SDS011;18207;32.078;34.818;2024-01-11T11:13:18;0.32;;;0.20;;
23617;SDS011;18207;32.078;34.818;2024-01-11T11:15:51;0.50;;;0.30;;
23617;SDS011;18207;32.078;34.818;2024-01-11T11:18:27;0.90;;;0.40;;
23617;SDS011;18207;32.078;34.818;2024-01-11T11:20:58;0.85;;;0.40;;
23617;SDS011;18207;32.078;34.818;2024-01-11T11:23:28;0.50;;;0.20;;
23617;SDS011;18207;32.078;34.818;2024-01-11T11:25:58;0.32;;;0.20;;
23617;SDS011;18207;32.078;34.818;2024-01-11T11:28:29;0.68;;;0.25;;
23617;SDS011;18207;32.078;34.818;2024-01-11T11:31:05;1.23;;;0.30;;
23617;SDS011;18207;32.078;34.818;2024-01-11T11:33:35;0.17;;;0.13;;
23617;SDS011;18207;32.078;34.818;2024-01-11T11:36:09;0.40;;;0.30;;
23617;SDS011;18207;32.078;34.818;2024-01-11T11:38:49;0.20;;;0.20;;
23617;SDS011;18207;32.078;34.818;2024-01-11T11:41:28;0.10;;;0.10;;
23617;SDS011;18207;32.078;34.818;2024-01-11T11:44:11;0.70;;;0.30;;
23617;SDS011;18207;32.078;34.818;2024-01-11T11:46:47;0.60;;;0.20;;
23617;SDS011;18207;32.078;34.818;2024-01-11T11:49:18;0.65;;;0.28;;
23617;SDS011;18207;32.078;34.818;2024-01-11T11:51:48;2.17;;;0.63;;
23617;SDS011;18207;32.078;34.818;2024-01-11T11:54:20;2.03;;;0.50;;
23617;SDS011;18207;32.078;34.818;2024-01-11T11:56:52;2.85;;;0.60;;
23617;SDS011;18207;32.078;34.818;2024-01-11T11:59:23;0.55;;;0.15;;
23617;SDS011;18207;32.078;34.818;2024-01-11T12:01:58;2.53;;;0.20;;
23617;SDS011;18207;32.078;34.818;2024-01-11T12:04:29;0.30;;;0.20;;
23617;SDS011;18207;32.078;34.818;2024-01-11T12:06:59;0.20;;;0.20;;
23617;SDS011;18207;32.078;34.818;2024-01-11T12:09:33;0.80;;;0.40;;
23617;SDS011;18207;32.078;34.818;2024-01-11T12:12:03;0.95;;;0.38;;
23617;SDS011;18207;32.078;34.818;2024-01-11T12:14:42;1.83;;;0.28;;
23617;SDS011;18207;32.078;34.818;2024-01-11T12:17:14;0.60;;;0.30;;
23617;SDS011;18207;32.078;34.818;2024-01-11T12:19:45;0.40;;;0.20;;
23617;SDS011;18207;32.078;34.818;2024-01-11T12:22:16;0.82;;;0.40;;
23617;SDS011;18207;32.078;34.818;2024-01-11T12:24:49;1.17;;;0.50;;
23617;SDS011;18207;32.078;34.818;2024-01-11T12:27:19;1.00;;;0.45;;
23617;SDS011;18207;32.078;34.818;2024-01-11T12:29:48;1.60;;;0.35;;
23617;SDS011;18207;32.078;34.818;2024-01-11T12:32:26;0.65;;;0.30;;
23617;SDS011;18207;32.078;34.818;2024-01-11T12:34:57;0.38;;;0.38;;
23617;SDS011;18207;32.078;34.818;2024-01-11T12:37:27;1.33;;;0.40;;
23617;SDS011;18207;32.078;34.818;2024-01-11T12:40:01;0.60;;;0.32;;
23617;SDS011;18207;32.078;34.818;2024-01-11T12:42:53;0.75;;;0.45;;
23617;SDS011;18207;32.078;34.818;2024-01-11T12:45:40;9.45;;;1.90;;
23617;SDS011;18207;32.078;34.818;2024-01-11T12:48:11;5.32;;;1.10;;
23617;SDS011;18207;32.078;34.818;2024-01-11T12:50:43;0.50;;;0.30;;
23617;SDS011;18207;32.078;34.818;2024-01-11T12:53:17;1.15;;;0.55;;
23617;SDS011;18207;32.078;34.818;2024-01-11T12:55:47;1.05;;;0.30;;
23617;SDS011;18207;32.078;34.818;2024-01-11T12:58:30;1.15;;;0.70;;
23617;SDS011;18207;32.078;34.818;2024-01-11T13:01:00;0.68;;;0.40;;
23617;SDS011;18207;32.078;34.818;2024-01-11T13:03:32;0.75;;;0.22;;
23617;SDS011;18207;32.078;34.818;2024-01-11T13:06:03;0.32;;;0.20;;
23617;SDS011;18207;32.078;34.818;2024-01-11T13:08:33;0.55;;;0.30;;
23617;SDS011;18207;32.078;34.818;2024-01-11T13:11:06;0.77;;;0.20;;
23617;SDS011;18207;32.078;34.818;2024-01-11T13:13:39;0.50;;;0.40;;
23617;SDS011;18207;32.078;34.818;2024-01-11T13:16:09;0.43;;;0.20;;
23617;SDS011;18207;32.078;34.818;2024-01-11T13:18:43;0.68;;;0.17;;
23617;SDS011;18207;32.078;34.818;2024-01-11T13:21:13;0.38;;;0.20;;
23617;SDS011;18207;32.078;34.818;2024-01-11T13:23:43;0.63;;;0.50;;
23617;SDS011;18207;32.078;34.818;2024-01-11T13:26:13;1.42;;;0.70;;
23617;SDS011;18207;32.078;34.818;2024-01-11T13:28:43;1.45;;;0.77;;
23617;SDS011;18207;32.078;34.818;2024-01-11T13:31:14;0.63;;;0.40;;
23617;SDS011;18207;32.078;34.818;2024-01-11T13:33:57;1.45;;;0.50;;
23617;SDS011;18207;32.078;34.818;2024-01-11T13:36:38;0.65;;;0.43;;
23617;SDS011;18207;32.078;34.818;2024-01-11T13:39:08;1.05;;;0.30;;
23617;SDS011;18207;32.078;34.818;2024-01-11T13:41:40;0.85;;;0.43;;
23617;SDS011;18207;32.078;34.818;2024-01-11T13:44:11;0.40;;;0.30;;
23617;SDS011;18207;32.078;34.818;2024-01-11T13:46:42;0.20;;;0.20;;
23617;SDS011;18207;32.078;34.818;2024-01-11T13:49:14;0.40;;;0.20;;
23617;SDS011;18207;32.078;34.818;2024-01-11T13:51:44;0.73;;;0.50;;
23617;SDS011;18207;32.078;34.818;2024-01-11T13:54:26;0.47;;;0.13;;
23617;SDS011;18207;32.078;34.818;2024-01-11T13:56:56;0.38;;;0.22;;
23617;SDS011;18207;32.078;34.818;2024-01-11T13:59:26;0.45;;;0.30;;
23617;SDS011;18207;32.078;34.818;2024-01-11T14:01:56;0.40;;;0.20;;
23617;SDS011;18207;32.078;34.818;2024-01-11T14:04:28;0.40;;;0.30;;
23617;SDS011;18207;32.078;34.818;2024-01-11T14:06:57;0.52;;;0.28;;
23617;SDS011;18207;32.078;34.818;2024-01-11T14:09:28;0.55;;;0.30;;
23617;SDS011;18207;32.078;34.818;2024-01-11T14:11:58;0.38;;;0.20;;
23617;SDS011;18207;32.078;34.818;2024-01-11T14:14:41;0.30;;;0.28;;
23617;SDS011;18207;32.078;34.818;2024-01-11T14:17:12;0.82;;;0.20;;
23617;SDS011;18207;32.078;34.818;2024-01-11T14:19:53;0.35;;;0.20;;
23617;SDS011;18207;32.078;34.818;2024-01-11T14:22:24;0.65;;;0.40;;
23617;SDS011;18207;32.078;34.818;2024-01-11T14:24:54;0.13;;;0.13;;
23617;SDS011;18207;32.078;34.818;2024-01-11T14:27:23;0.43;;;0.30;;
23617;SDS011;18207;32.078;34.818;2024-01-11T14:29:53;0.68;;;0.50;;
23617;SDS011;18207;32.078;34.818;2024-01-11T14:32:24;1.50;;;0.60;;
23617;SDS011;18207;32.078;34.818;2024-01-11T14:35:04;0.50;;;0.45;;
23617;SDS011;18207;32.078;34.818;2024-01-11T14:37:35;1.13;;;0.50;;
23617;SDS011;18207;32.078;34.818;2024-01-11T14:40:08;0.30;;;0.20;;
23617;SDS011;18207;32.078;34.818;2024-01-11T14:42:41;0.63;;;0.47;;
23617;SDS011;18207;32.078;34.818;2024-01-11T14:45:11;0.35;;;0.30;;
23617;SDS011;18207;32.078;34.818;2024-01-11T14:47:42;0.45;;;0.38;;
23617;SDS011;18207;32.078;34.818;2024-01-11T14:50:16;0.20;;;0.20;;
23617;SDS011;18207;32.078;34.818;2024-01-11T14:52:47;0.55;;;0.30;;
23617;SDS011;18207;32.078;34.818;2024-01-11T14:55:18;1.00;;;0.43;;
23617;SDS011;18207;32.078;34.818;2024-01-11T14:57:47;0.43;;;0.30;;
23617;SDS011;18207;32.078;34.818;2024-01-11T15:00:21;0.25;;;0.25;;
23617;SDS011;18207;32.078;34.818;2024-01-11T15:02:51;0.30;;;0.30;;